createdAt,value
2022-09-12T00:00:02.937Z,13.19
2022-09-12T00:02:25.115Z,13.19
2022-09-12T00:04:46.563Z,13.22
2022-09-12T00:07:08.099Z,13.14
2022-09-12T00:09:29.586Z,12.97
2022-09-12T00:11:51.166Z,13.10
2022-09-12T00:14:16.680Z,13.14
2022-09-12T00:16:38.521Z,13.19
2022-09-12T00:19:01.262Z,13.13
2022-09-12T00:21:23.161Z,12.82
2022-09-12T00:23:44.942Z,12.79
2022-09-12T00:26:07.007Z,12.87
2022-09-12T00:28:28.459Z,12.89
2022-09-12T00:30:49.914Z,12.91
2022-09-12T00:33:11.959Z,12.79
2022-09-12T00:35:33.455Z,12.84
2022-09-12T00:37:54.958Z,12.85
2022-09-12T00:40:16.596Z,13.03
2022-09-12T00:42:38.041Z,12.88
2022-09-12T00:44:59.461Z,12.93
2022-09-12T00:47:28.041Z,12.94
2022-09-12T00:50:16.394Z,12.63
2022-09-12T00:52:42.039Z,12.68
2022-09-12T00:55:27.817Z,12.55
2022-09-12T00:58:12.621Z,12.69
2022-09-12T01:00:34.108Z,12.70
2022-09-12T01:03:07.834Z,12.71
2022-09-12T01:05:33.976Z,12.60
2022-09-12T01:07:57.037Z,12.48
2022-09-12T01:10:19.550Z,12.57
2022-09-12T01:12:42.946Z,12.59
2022-09-12T01:15:04.821Z,12.40
2022-09-12T01:17:39.773Z,12.35
2022-09-12T01:20:39.570Z,12.34
2022-09-12T01:23:22.727Z,12.25
2022-09-12T01:26:02.737Z,12.42
2022-09-12T01:28:36.176Z,12.40
2022-09-12T01:31:04.902Z,12.22
2022-09-12T01:33:51.197Z,12.06
2022-09-12T01:36:22.045Z,11.91
2022-09-12T01:38:50.278Z,11.88
2022-09-12T01:41:38.771Z,11.85
2022-09-12T01:44:12.344Z,12.07
2022-09-12T01:46:46.482Z,12.15
2022-09-12T01:49:18.117Z,12.25
2022-09-12T01:51:44.790Z,12.16
2022-09-12T01:54:31.849Z,12.09
2022-09-12T01:57:00.290Z,11.98
2022-09-12T01:59:34.134Z,12.03
2022-09-12T02:02:09.744Z,11.86
2022-09-12T02:04:38.697Z,11.85
2022-09-12T02:07:08.913Z,11.92
2022-09-12T02:09:37.935Z,12.10
2022-09-12T02:12:01.489Z,12.14
2022-09-12T02:14:30.369Z,12.06
2022-09-12T02:17:07.118Z,12.01
2022-09-12T02:19:36.432Z,11.96
2022-09-12T02:22:04.676Z,11.83
2022-09-12T02:24:31.690Z,12.04
2022-09-12T02:26:58.101Z,11.92
2022-09-12T02:29:19.547Z,11.84
2022-09-12T02:31:47.245Z,11.60
2022-09-12T02:34:33.144Z,11.88
2022-09-12T02:37:32.557Z,12.03
2022-09-12T02:39:56.842Z,12.02
2022-09-12T02:42:18.312Z,11.89
2022-09-12T02:44:40.209Z,11.83
2022-09-12T02:47:09.929Z,11.81
2022-09-12T02:49:31.438Z,11.78
2022-09-12T02:51:52.925Z,11.73
2022-09-12T02:54:16.854Z,11.63
2022-09-12T02:56:42.522Z,11.62
2022-09-12T02:59:08.113Z,11.78
2022-09-12T03:01:49.490Z,11.84
2022-09-12T03:04:35.138Z,11.91
2022-09-12T03:07:32.912Z,11.77
2022-09-12T03:10:17.815Z,11.44
2022-09-12T03:12:42.343Z,11.31
2022-09-12T03:15:14.669Z,11.33
2022-09-12T03:17:52.771Z,11.54
2022-09-12T03:20:45.909Z,11.62
2022-09-12T03:23:33.251Z,11.66
2022-09-12T03:26:01.067Z,11.72
2022-09-12T03:28:23.591Z,11.86
2022-09-12T03:30:48.298Z,12.07
2022-09-12T03:33:15.015Z,12.08
2022-09-12T03:35:36.440Z,12.08
2022-09-12T03:37:57.862Z,12.01
2022-09-12T03:40:19.947Z,11.77
2022-09-12T03:42:42.348Z,11.69
2022-09-12T03:45:05.035Z,11.54
2022-09-12T03:47:26.532Z,11.44
2022-09-12T03:49:48.026Z,11.64
2022-09-12T03:52:09.432Z,11.81
2022-09-12T03:54:30.852Z,11.89
2022-09-12T03:56:52.582Z,11.96
2022-09-12T03:59:14.002Z,12.06
2022-09-12T04:01:35.459Z,12.12
2022-09-12T04:03:56.902Z,12.16
2022-09-12T04:06:21.356Z,12.20
2022-09-12T04:08:43.987Z,12.14
2022-09-12T04:11:08.422Z,11.95
2022-09-12T04:13:29.836Z,11.74
2022-09-12T04:15:59.617Z,11.82
2022-09-12T04:18:21.035Z,11.88
2022-09-12T04:20:42.686Z,11.70
2022-09-12T04:23:04.110Z,11.86
2022-09-12T04:25:25.653Z,11.93
2022-09-12T04:27:47.073Z,12.03
2022-09-12T04:30:09.126Z,12.10
2022-09-12T04:32:31.260Z,11.96
2022-09-12T04:34:52.768Z,11.85
2022-09-12T04:37:14.231Z,11.75
2022-09-12T04:39:35.645Z,11.56
2022-09-12T04:41:57.076Z,11.49
2022-09-12T04:44:18.678Z,11.45
2022-09-12T04:46:44.527Z,11.23
2022-09-12T04:49:06.694Z,10.95
2022-09-12T04:51:31.018Z,10.73
2022-09-12T04:53:53.918Z,10.62
2022-09-12T04:56:15.391Z,10.72
2022-09-12T04:58:37.846Z,10.99
2022-09-12T05:01:07.551Z,11.14
2022-09-12T05:03:29.077Z,11.36
2022-09-12T05:05:53.344Z,11.44
2022-09-12T05:08:17.727Z,11.48
2022-09-12T05:10:39.137Z,11.66
2022-09-12T05:13:00.556Z,11.75
2022-09-12T05:15:21.970Z,11.74
2022-09-12T05:17:43.443Z,11.74
2022-09-12T05:20:05.167Z,11.99
2022-09-12T05:22:26.580Z,12.10
2022-09-12T05:24:50.602Z,12.03
2022-09-12T05:27:12.289Z,11.84
2022-09-12T05:29:34.107Z,11.72
2022-09-12T05:31:55.559Z,11.65
2022-09-12T05:34:16.989Z,11.53
2022-09-12T05:36:38.634Z,11.51
2022-09-12T05:39:01.071Z,11.62
2022-09-12T05:41:25.470Z,11.58
2022-09-12T05:43:47.305Z,11.51
2022-09-12T05:46:11.835Z,11.48
2022-09-12T05:48:33.388Z,11.59
2022-09-12T05:51:25.468Z,11.66
2022-09-12T05:53:49.945Z,11.45
2022-09-12T05:56:13.898Z,11.62
2022-09-12T05:58:36.903Z,11.96
2022-09-12T06:01:10.505Z,12.10
2022-09-12T06:03:31.956Z,12.25
2022-09-12T06:05:53.360Z,12.29
2022-09-12T06:08:14.777Z,12.43
2022-09-12T06:10:36.365Z,12.56
2022-09-12T06:12:57.782Z,12.63
2022-09-12T06:15:19.174Z,12.66
2022-09-12T06:17:40.585Z,12.50
2022-09-12T06:20:02.232Z,12.40
2022-09-12T06:22:23.654Z,12.35
2022-09-12T06:24:45.065Z,12.39
2022-09-12T06:27:06.485Z,12.66
2022-09-12T06:29:28.603Z,12.79
2022-09-12T06:31:50.066Z,12.96
2022-09-12T06:34:14.668Z,13.11
2022-09-12T06:36:42.286Z,13.26
2022-09-12T06:39:07.608Z,13.36
2022-09-12T06:41:31.258Z,13.37
2022-09-12T06:43:53.419Z,13.49
2022-09-12T06:46:14.962Z,13.45
2022-09-12T06:48:41.128Z,13.51
2022-09-12T06:51:07.388Z,13.47
2022-09-12T06:53:30.391Z,13.60
2022-09-12T06:55:59.257Z,13.74
2022-09-12T06:58:20.705Z,13.91
2022-09-12T07:00:42.097Z,14.03
2022-09-12T07:03:03.559Z,14.15
2022-09-12T07:05:25.031Z,14.30
2022-09-12T07:07:46.447Z,14.38
2022-09-12T07:10:08.370Z,14.48
2022-09-12T07:12:30.117Z,14.54
2022-09-12T07:14:51.528Z,14.53
2022-09-12T07:17:12.962Z,14.60
2022-09-12T07:19:35.013Z,14.65
2022-09-12T07:21:58.680Z,14.71
2022-09-12T07:24:20.289Z,14.76
2022-09-12T07:26:44.872Z,14.86
2022-09-12T07:29:34.857Z,14.87
2022-09-12T07:31:47.763Z,14.98
2022-09-12T07:34:09.208Z,15.03
2022-09-12T07:36:30.608Z,15.14
2022-09-12T07:38:57.689Z,15.17
2022-09-12T07:41:21.363Z,15.20
2022-09-12T07:43:42.921Z,15.28
2022-09-12T07:46:04.450Z,15.37
2022-09-12T07:48:27.722Z,15.38
2022-09-12T07:50:59.437Z,15.46
2022-09-12T07:53:20.836Z,15.52
2022-09-12T07:55:42.252Z,15.72
2022-09-12T07:58:03.799Z,15.79
2022-09-12T08:00:25.375Z,15.92
2022-09-12T08:02:52.214Z,16.07
2022-09-12T08:05:13.845Z,16.24
2022-09-12T08:07:35.353Z,16.37
2022-09-12T08:09:56.851Z,16.50
2022-09-12T08:12:20.252Z,16.56
2022-09-12T08:14:41.702Z,16.72
2022-09-12T08:17:03.118Z,16.87
2022-09-12T08:19:24.563Z,17.07
2022-09-12T08:21:45.982Z,17.20
2022-09-12T08:24:07.627Z,17.29
2022-09-12T08:26:30.274Z,17.36
2022-09-12T08:28:52.018Z,17.32
2022-09-12T08:31:17.840Z,17.36
2022-09-12T08:33:40.023Z,17.58
2022-09-12T08:36:10.162Z,17.46
2022-09-12T08:38:32.787Z,17.55
2022-09-12T08:41:03.182Z,17.53
2022-09-12T08:43:52.078Z,17.82
2022-09-12T08:46:23.744Z,17.98
2022-09-12T08:48:46.683Z,18.12
2022-09-12T08:51:15.022Z,18.40
2022-09-12T08:53:37.534Z,18.54
2022-09-12T08:56:00.312Z,18.65
2022-09-12T08:58:24.111Z,18.40
2022-09-12T09:01:19.883Z,18.43
2022-09-12T09:04:13.449Z,18.61
2022-09-12T09:07:10.228Z,18.73
2022-09-12T09:09:54.760Z,18.97
2022-09-12T09:12:16.197Z,19.30
2022-09-12T09:14:56.408Z,19.54
2022-09-12T09:17:41.663Z,19.43
2022-09-12T09:20:21.135Z,19.65
2022-09-12T09:22:59.576Z,19.69
2022-09-12T09:25:24.990Z,19.69
2022-09-12T09:27:53.317Z,20.09
2022-09-12T09:30:17.720Z,19.86
2022-09-12T09:32:41.430Z,19.79
2022-09-12T09:35:14.876Z,20.40
2022-09-12T09:37:43.485Z,20.52
2022-09-12T09:40:23.539Z,20.50
2022-09-12T09:43:04.102Z,20.24
2022-09-12T09:45:29.180Z,20.33
2022-09-12T09:48:01.557Z,20.53
2022-09-12T09:50:23.200Z,20.72
2022-09-12T09:52:45.326Z,20.54
2022-09-12T09:55:17.750Z,20.62
2022-09-12T09:57:41.346Z,20.61
2022-09-12T10:00:27.388Z,20.54
2022-09-12T10:03:22.014Z,20.86
2022-09-12T10:05:49.784Z,20.96
2022-09-12T10:08:20.856Z,21.16
2022-09-12T10:10:53.710Z,21.43
2022-09-12T10:13:33.589Z,21.76
2022-09-12T10:16:01.015Z,21.98
2022-09-12T10:18:37.745Z,22.44
2022-09-12T10:20:59.189Z,22.65
2022-09-12T10:23:35.285Z,22.36
2022-09-12T10:26:01.393Z,22.14
2022-09-12T10:28:29.427Z,22.33
2022-09-12T10:30:54.568Z,22.44
2022-09-12T10:33:16.076Z,22.68
2022-09-12T10:35:47.796Z,22.88
2022-09-12T10:38:23.502Z,23.12
2022-09-12T10:40:44.903Z,23.56
2022-09-12T10:43:31.001Z,23.73
2022-09-12T10:45:57.752Z,23.96
2022-09-12T10:48:27.442Z,24.18
2022-09-12T10:50:48.863Z,24.07
2022-09-12T10:53:14.396Z,24.08
2022-09-12T10:55:36.463Z,24.44
2022-09-12T10:58:11.246Z,24.29
2022-09-12T11:00:38.155Z,24.68
2022-09-12T11:03:29.593Z,24.86
2022-09-12T11:05:55.235Z,25.42
2022-09-12T11:08:39.014Z,25.92
2022-09-12T11:11:18.639Z,25.76
2022-09-12T11:14:01.307Z,26.31
2022-09-12T11:16:49.349Z,26.65
2022-09-12T11:19:32.019Z,26.38
2022-09-12T11:22:08.731Z,26.31
2022-09-12T11:24:47.081Z,26.22
2022-09-12T11:27:29.788Z,25.90
2022-09-12T11:29:58.180Z,25.80
2022-09-12T11:32:54.836Z,25.73
2022-09-12T11:35:18.992Z,25.72
2022-09-12T11:38:08.875Z,25.53
2022-09-12T11:40:45.345Z,25.54
2022-09-12T11:43:26.046Z,25.74
2022-09-12T11:45:48.470Z,25.77
2022-09-12T11:48:30.418Z,25.87
2022-09-12T11:50:52.357Z,26.44
2022-09-12T11:53:29.337Z,26.08
2022-09-12T11:55:58.370Z,25.73
2022-09-12T11:58:24.810Z,25.39
2022-09-12T12:00:51.811Z,25.51
2022-09-12T12:03:37.186Z,26.22
2022-09-12T12:06:16.672Z,26.60
2022-09-12T12:08:41.704Z,26.75
2022-09-12T12:11:05.208Z,26.37
2022-09-12T12:13:30.093Z,26.54
2022-09-12T12:15:56.781Z,26.75
2022-09-12T12:18:24.007Z,27.13
2022-09-12T12:20:46.222Z,27.42
2022-09-12T12:23:29.985Z,27.57
2022-09-12T12:25:54.983Z,27.19
2022-09-12T12:28:42.247Z,27.12
2022-09-12T12:31:03.811Z,26.79
2022-09-12T12:33:25.198Z,26.50
2022-09-12T12:35:59.427Z,26.55
2022-09-12T12:38:35.346Z,26.75
2022-09-12T12:41:18.737Z,26.62
2022-09-12T12:43:40.161Z,26.37
2022-09-12T12:46:04.680Z,26.48
2022-09-12T12:48:29.508Z,26.70
2022-09-12T12:50:50.967Z,26.74
2022-09-12T12:53:19.662Z,26.62
2022-09-12T12:55:44.011Z,26.66
2022-09-12T12:58:07.948Z,27.27
2022-09-12T13:00:35.850Z,27.90
2022-09-12T13:03:22.837Z,28.40
2022-09-12T13:05:54.638Z,29.14
2022-09-12T13:08:18.946Z,29.61
2022-09-12T13:10:50.391Z,29.75
2022-09-12T13:13:24.747Z,29.67
2022-09-12T13:15:49.344Z,30.10
2022-09-12T13:18:16.758Z,30.28
2022-09-12T13:20:47.329Z,30.29
2022-09-12T13:23:22.557Z,29.57
2022-09-12T13:25:53.618Z,29.65
2022-09-12T13:28:20.572Z,29.63
2022-09-12T13:31:11.049Z,29.06
2022-09-12T13:33:41.813Z,28.56
2022-09-12T13:36:23.607Z,28.29
2022-09-12T13:38:51.269Z,28.34
2022-09-12T13:41:24.929Z,28.26
2022-09-12T13:43:48.014Z,28.46
2022-09-12T13:46:13.411Z,28.24
2022-09-12T13:48:35.086Z,28.38
2022-09-12T13:51:02.137Z,28.27
2022-09-12T13:53:27.060Z,28.64
2022-09-12T13:55:53.561Z,28.79
2022-09-12T13:58:20.948Z,29.02
2022-09-12T14:00:42.617Z,28.96
2022-09-12T14:03:44.304Z,29.15
2022-09-12T14:06:08.498Z,28.86
2022-09-12T14:08:31.663Z,29.09
2022-09-12T14:10:53.512Z,29.34
2022-09-12T14:13:25.190Z,28.97
2022-09-12T14:15:48.971Z,28.74
2022-09-12T14:18:23.372Z,28.82
2022-09-12T14:20:44.797Z,28.71
2022-09-12T14:23:20.108Z,28.47
2022-09-12T14:25:44.044Z,28.45
2022-09-12T14:28:06.133Z,28.31
2022-09-12T14:30:30.519Z,28.92
2022-09-12T14:33:11.435Z,29.13
2022-09-12T14:35:33.209Z,29.77
2022-09-12T14:37:54.909Z,29.99
2022-09-12T14:40:22.388Z,30.63
2022-09-12T14:42:44.808Z,30.94
2022-09-12T14:45:17.089Z,31.88
2022-09-12T14:47:42.013Z,31.79
2022-09-12T14:50:04.833Z,31.56
2022-09-12T14:52:32.326Z,31.58
2022-09-12T14:55:16.139Z,31.82
2022-09-12T14:57:40.356Z,31.21
2022-09-12T15:00:11.408Z,31.85
2022-09-12T15:02:34.203Z,32.70
2022-09-12T15:05:17.766Z,33.01
2022-09-12T15:07:41.853Z,33.05
2022-09-12T15:10:26.755Z,33.44
2022-09-12T15:12:48.505Z,32.71
2022-09-12T15:15:18.919Z,33.48
2022-09-12T15:17:40.341Z,33.55
2022-09-12T15:20:01.956Z,34.08
2022-09-12T15:22:24.359Z,33.95
2022-09-12T15:24:45.783Z,33.71
2022-09-12T15:27:13.397Z,33.86
2022-09-12T15:29:35.088Z,33.83
2022-09-12T15:31:56.567Z,33.29
2022-09-12T15:34:17.988Z,33.08
2022-09-12T15:36:39.385Z,32.42
2022-09-12T15:39:00.805Z,31.74
2022-09-12T15:41:23.501Z,31.14
2022-09-12T15:43:46.283Z,30.49
2022-09-12T15:46:11.701Z,30.31
2022-09-12T15:48:33.362Z,29.47
2022-09-12T15:50:55.770Z,29.80
2022-09-12T15:53:17.423Z,29.82
2022-09-12T15:55:38.818Z,29.85
2022-09-12T15:58:04.838Z,29.30
2022-09-12T16:00:28.374Z,28.67
2022-09-12T16:02:52.358Z,28.22
2022-09-12T16:05:22.034Z,28.02
2022-09-12T16:07:44.478Z,27.97
2022-09-12T16:10:06.247Z,27.72
2022-09-12T16:12:27.659Z,27.88
2022-09-12T16:14:49.113Z,27.77
2022-09-12T16:17:10.788Z,27.71
2022-09-12T16:19:32.341Z,27.69
2022-09-12T16:21:53.750Z,27.64
2022-09-12T16:24:15.574Z,27.91
2022-09-12T16:26:37.018Z,27.99
2022-09-12T16:28:59.253Z,28.10
2022-09-12T16:31:20.667Z,28.23
2022-09-12T16:33:42.223Z,28.38
2022-09-12T16:36:09.270Z,28.49
2022-09-12T16:38:31.615Z,28.38
2022-09-12T16:40:59.918Z,28.37
2022-09-12T16:43:21.357Z,28.24
2022-09-12T16:45:44.319Z,28.11
2022-09-12T16:48:05.727Z,28.02
2022-09-12T16:50:29.166Z,27.82
2022-09-12T16:52:50.596Z,27.73
2022-09-12T16:55:12.029Z,27.68
2022-09-12T16:57:33.435Z,27.55
2022-09-12T16:59:55.237Z,27.41
2022-09-12T17:02:16.709Z,27.36
2022-09-12T17:04:38.172Z,27.24
2022-09-12T17:06:59.599Z,27.17
2022-09-12T17:09:22.032Z,27.06
2022-09-12T17:11:43.503Z,27.01
2022-09-12T17:14:08.062Z,26.90
2022-09-12T17:16:29.990Z,26.64
2022-09-12T17:18:52.818Z,26.31
2022-09-12T17:21:14.727Z,26.02
2022-09-12T17:23:36.521Z,25.85
2022-09-12T17:25:57.986Z,25.70
2022-09-12T17:28:19.505Z,25.26
2022-09-12T17:30:41.601Z,25.12
2022-09-12T17:33:03.172Z,24.97
2022-09-12T17:35:24.606Z,24.78
2022-09-12T17:37:46.030Z,24.49
2022-09-12T17:40:08.066Z,24.34
2022-09-12T17:42:29.657Z,24.21
2022-09-12T17:44:51.074Z,24.07
2022-09-12T17:47:12.484Z,23.94
2022-09-12T17:49:33.991Z,23.72
2022-09-12T17:51:58.168Z,23.53
2022-09-12T17:54:20.858Z,23.35
2022-09-12T17:56:44.265Z,23.07
2022-09-12T17:59:07.439Z,22.83
2022-09-12T18:01:48.072Z,22.74
2022-09-12T18:04:10.731Z,22.60
2022-09-12T18:06:32.952Z,22.55
2022-09-12T18:08:54.621Z,22.46
2022-09-12T18:11:16.699Z,22.36
2022-09-12T18:13:38.165Z,22.25
2022-09-12T18:16:08.431Z,22.14
2022-09-12T18:18:29.923Z,22.02
2022-09-12T18:20:51.479Z,21.86
2022-09-12T18:23:12.887Z,21.46
2022-09-12T18:25:34.291Z,21.28
2022-09-12T18:27:55.698Z,21.27
2022-09-12T18:30:21.472Z,21.22
2022-09-12T18:32:43.184Z,21.11
2022-09-12T18:35:05.956Z,21.04
2022-09-12T18:37:27.380Z,20.70
2022-09-12T18:39:48.839Z,20.80
2022-09-12T18:42:10.266Z,20.72
2022-09-12T18:44:31.802Z,20.54
2022-09-12T18:46:53.297Z,20.53
2022-09-12T18:49:14.724Z,20.49
2022-09-12T18:51:37.393Z,20.46
2022-09-12T18:54:00.956Z,20.37
2022-09-12T18:56:24.921Z,20.34
2022-09-12T18:58:50.640Z,20.31
2022-09-12T19:01:13.542Z,20.10
2022-09-12T19:03:35.104Z,20.09
2022-09-12T19:05:56.516Z,20.04
2022-09-12T19:08:17.937Z,19.98
2022-09-12T19:10:39.347Z,19.68
2022-09-12T19:13:03.243Z,19.59
2022-09-12T19:15:24.638Z,19.60
2022-09-12T19:17:46.050Z,19.63
2022-09-12T19:20:07.730Z,19.58
2022-09-12T19:22:29.327Z,19.44
2022-09-12T19:24:50.784Z,19.37
2022-09-12T19:27:13.559Z,19.30
2022-09-12T19:29:34.975Z,19.27
2022-09-12T19:31:56.700Z,19.20
2022-09-12T19:34:18.146Z,19.26
2022-09-12T19:36:45.452Z,19.11
2022-09-12T19:39:08.618Z,18.82
2022-09-12T19:41:30.539Z,18.84
2022-09-12T19:43:51.964Z,18.81
2022-09-12T19:46:22.651Z,18.81
2022-09-12T19:48:45.003Z,18.76
2022-09-12T19:51:06.661Z,18.54
2022-09-12T19:53:28.788Z,18.23
2022-09-12T19:55:50.197Z,18.30
2022-09-12T19:58:12.521Z,18.34
2022-09-12T20:00:35.230Z,18.18
2022-09-12T20:02:56.663Z,18.24
2022-09-12T20:05:19.187Z,18.21
2022-09-12T20:07:40.612Z,18.21
2022-09-12T20:10:02.001Z,18.18
2022-09-12T20:12:23.423Z,18.09
2022-09-12T20:14:44.836Z,17.79
2022-09-12T20:17:06.530Z,17.84
2022-09-12T20:19:28.293Z,17.82
2022-09-12T20:21:49.707Z,17.79
2022-09-12T20:24:13.731Z,17.88
2022-09-12T20:26:35.523Z,17.84
2022-09-12T20:28:57.121Z,17.61
2022-09-12T20:31:18.749Z,17.58
2022-09-12T20:33:40.500Z,17.43
2022-09-12T20:36:08.057Z,17.42
2022-09-12T20:38:29.479Z,17.43
2022-09-12T20:40:51.342Z,17.43
2022-09-12T20:43:12.742Z,17.49
2022-09-12T20:45:34.163Z,17.42
2022-09-12T20:47:55.559Z,17.28
2022-09-12T20:50:16.970Z,17.13
2022-09-12T20:52:38.359Z,17.05
2022-09-12T20:54:59.754Z,17.06
2022-09-12T20:57:21.228Z,17.11
2022-09-12T20:59:42.666Z,17.07
2022-09-12T21:02:04.227Z,17.12
2022-09-12T21:04:25.855Z,17.03
2022-09-12T21:06:47.299Z,16.85
2022-09-12T21:09:08.786Z,16.80
2022-09-12T21:11:30.332Z,16.67
2022-09-12T21:13:52.995Z,16.63
2022-09-12T21:16:17.111Z,16.64
2022-09-12T21:18:39.351Z,16.64
2022-09-12T21:21:01.019Z,16.67
2022-09-12T21:23:24.636Z,16.65
2022-09-12T21:25:52.218Z,16.47
2022-09-12T21:28:15.558Z,16.25
2022-09-12T21:30:37.232Z,16.34
2022-09-12T21:32:58.661Z,16.38
2022-09-12T21:35:20.303Z,16.42
2022-09-12T21:37:41.705Z,16.30
2022-09-12T21:40:03.949Z,16.31
2022-09-12T21:42:25.763Z,16.25
2022-09-12T21:44:47.216Z,16.25
2022-09-12T21:47:09.237Z,16.26
2022-09-12T21:49:30.643Z,16.26
2022-09-12T21:51:52.102Z,16.24
2022-09-12T21:54:13.950Z,16.05
2022-09-12T21:56:35.393Z,15.66
2022-09-12T21:58:56.810Z,15.81
2022-09-12T22:01:18.343Z,15.82
2022-09-12T22:03:39.939Z,15.77
2022-09-12T22:06:03.527Z,15.77
2022-09-12T22:08:25.065Z,15.66
2022-09-12T22:10:47.272Z,15.54
2022-09-12T22:13:08.778Z,15.63
2022-09-12T22:15:40.425Z,15.72
2022-09-12T22:18:02.198Z,15.61
2022-09-12T22:20:23.693Z,15.54
2022-09-12T22:23:03.774Z,15.54
2022-09-12T22:25:25.928Z,15.34
2022-09-12T22:27:47.324Z,15.29
2022-09-12T22:30:09.122Z,15.40
2022-09-12T22:32:30.531Z,15.27
2022-09-12T22:34:51.963Z,15.31
2022-09-12T22:37:13.749Z,15.21
2022-09-12T22:39:35.211Z,15.27
2022-09-12T22:41:56.632Z,15.04
2022-09-12T22:44:18.401Z,14.92
2022-09-12T22:46:40.141Z,15.07
2022-09-12T22:49:01.619Z,15.14
2022-09-12T22:51:23.411Z,15.03
2022-09-12T22:53:44.928Z,15.01
2022-09-12T22:56:07.395Z,15.00
2022-09-12T22:58:28.983Z,15.00
2022-09-12T23:00:51.644Z,14.87
2022-09-12T23:03:13.165Z,14.92
2022-09-12T23:05:36.722Z,14.91
2022-09-12T23:07:58.282Z,14.89
2022-09-12T23:10:19.869Z,14.71
2022-09-12T23:12:41.266Z,14.81
2022-09-12T23:15:02.697Z,14.84
2022-09-12T23:17:24.162Z,14.71
2022-09-12T23:19:45.598Z,14.79
2022-09-12T23:22:06.981Z,14.53
2022-09-12T23:24:28.610Z,14.69
2022-09-12T23:26:50.028Z,14.50
2022-09-12T23:29:11.458Z,14.47
2022-09-12T23:31:34.011Z,14.43
2022-09-12T23:33:57.274Z,14.43
2022-09-12T23:36:18.703Z,14.49
2022-09-12T23:38:42.392Z,14.40
2022-09-12T23:41:04.623Z,14.44
2022-09-12T23:43:26.839Z,14.38
2022-09-12T23:45:48.748Z,14.38
2022-09-12T23:48:10.199Z,14.40
2022-09-12T23:50:31.622Z,14.32
2022-09-12T23:52:53.167Z,14.34
2022-09-12T23:55:14.963Z,14.45
2022-09-12T23:57:36.372Z,14.55
2022-09-12T23:59:57.858Z,14.44
